createdAt,value
2023-05-22T00:01:16.202Z,4.47
2023-05-22T00:03:43.077Z,4.95
2023-05-22T00:06:10.252Z,4.82
2023-05-22T00:08:37.229Z,4.35
2023-05-22T00:11:04.534Z,5.00
2023-05-22T00:13:31.733Z,5.35
2023-05-22T00:15:58.687Z,4.47
2023-05-22T00:18:27.187Z,4.95
2023-05-22T00:20:54.598Z,4.13
2023-05-22T00:23:22.061Z,4.00
2023-05-22T00:25:50.726Z,4.47
2023-05-22T00:28:17.856Z,4.70
2023-05-22T00:30:45.279Z,4.47
2023-05-22T00:33:12.455Z,4.60
2023-05-22T00:35:39.753Z,4.50
2023-05-22T00:38:08.136Z,4.53
2023-05-22T00:40:35.052Z,5.05
2023-05-22T00:43:08.508Z,4.88
2023-05-22T00:45:35.919Z,4.90
2023-05-22T00:48:02.876Z,4.80
2023-05-22T00:50:29.940Z,4.10
2023-05-22T00:52:57.281Z,5.03
2023-05-22T00:55:24.162Z,4.60
2023-05-22T00:57:52.386Z,5.18
2023-05-22T01:00:19.814Z,4.70
2023-05-22T01:02:46.947Z,4.60
2023-05-22T01:05:18.229Z,4.93
2023-05-22T01:07:46.799Z,4.88
2023-05-22T01:10:14.364Z,4.53
2023-05-22T01:13:00.572Z,4.68
2023-05-22T01:15:43.722Z,4.97
2023-05-22T01:18:22.071Z,4.85
2023-05-22T01:21:11.822Z,4.55
2023-05-22T01:24:04.620Z,4.88
2023-05-22T01:26:40.601Z,4.40
2023-05-22T01:29:24.934Z,4.63
2023-05-22T01:31:54.447Z,4.25
2023-05-22T01:34:22.214Z,4.78
2023-05-22T01:36:50.938Z,4.72
2023-05-22T01:39:18.341Z,4.97
2023-05-22T01:41:45.562Z,4.30
2023-05-22T01:44:12.909Z,4.65
2023-05-22T01:46:41.127Z,4.95
2023-05-22T01:49:09.237Z,4.50
2023-05-22T01:52:12.986Z,4.93
2023-05-22T01:54:46.448Z,5.10
2023-05-22T01:57:33.721Z,5.15
2023-05-22T02:00:13.932Z,4.90
2023-05-22T02:02:47.836Z,4.85
2023-05-22T02:05:18.865Z,4.95
2023-05-22T02:07:47.685Z,4.78
2023-05-22T02:10:16.741Z,4.57
2023-05-22T02:12:44.059Z,4.97
2023-05-22T02:15:11.792Z,4.82
2023-05-22T02:17:42.944Z,4.80
2023-05-22T02:20:15.431Z,4.57
2023-05-22T02:22:47.690Z,4.93
2023-05-22T02:25:17.246Z,4.43
2023-05-22T02:27:46.847Z,4.68
2023-05-22T02:30:15.690Z,4.32
2023-05-22T02:32:43.082Z,4.40
2023-05-22T02:35:10.441Z,4.70
2023-05-22T02:37:37.924Z,4.00
2023-05-22T02:40:08.650Z,3.97
2023-05-22T02:42:35.827Z,4.50
2023-05-22T02:45:03.310Z,4.88
2023-05-22T02:47:30.422Z,5.00
2023-05-22T02:50:00.013Z,4.38
2023-05-22T02:52:28.404Z,4.43
2023-05-22T02:54:55.585Z,4.40
2023-05-22T02:57:22.971Z,5.22
2023-05-22T02:59:49.964Z,4.30
2023-05-22T03:02:17.756Z,4.50
2023-05-22T03:04:45.368Z,5.55
2023-05-22T03:07:12.399Z,4.55
2023-05-22T03:09:39.760Z,4.75
2023-05-22T03:12:06.912Z,4.65
2023-05-22T03:14:33.865Z,4.93
2023-05-22T03:17:00.937Z,5.07
2023-05-22T03:19:28.401Z,5.07
2023-05-22T03:21:55.652Z,4.70
2023-05-22T03:24:22.576Z,4.10
2023-05-22T03:26:50.181Z,4.25
2023-05-22T03:29:17.758Z,4.18
2023-05-22T03:31:44.742Z,4.43
2023-05-22T03:34:12.202Z,4.55
2023-05-22T03:36:39.235Z,4.13
2023-05-22T03:39:06.572Z,3.97
2023-05-22T03:41:33.928Z,3.83
2023-05-22T03:44:00.822Z,4.20
2023-05-22T03:46:27.858Z,4.88
2023-05-22T03:48:54.997Z,4.70
2023-05-22T03:51:21.889Z,4.32
2023-05-22T03:53:49.063Z,4.25
2023-05-22T03:56:16.852Z,4.45
2023-05-22T03:58:43.758Z,4.80
2023-05-22T04:01:11.355Z,4.70
2023-05-22T04:03:38.343Z,4.22
2023-05-22T04:06:05.853Z,4.43
2023-05-22T04:08:32.943Z,4.50
2023-05-22T04:11:00.720Z,3.90
2023-05-22T04:13:27.719Z,4.55
2023-05-22T04:15:54.923Z,4.53
2023-05-22T04:18:22.363Z,4.68
2023-05-22T04:20:51.863Z,4.50
2023-05-22T04:23:19.320Z,4.60
2023-05-22T04:25:47.958Z,4.00
2023-05-22T04:28:17.628Z,3.65
2023-05-22T04:30:44.897Z,4.60
2023-05-22T04:33:12.851Z,3.85
2023-05-22T04:35:40.983Z,3.85
2023-05-22T04:38:07.976Z,4.05
2023-05-22T04:40:35.031Z,4.00
2023-05-22T04:43:02.020Z,4.30
2023-05-22T04:45:29.560Z,3.88
2023-05-22T04:47:57.143Z,4.05
2023-05-22T04:50:24.209Z,4.15
2023-05-22T04:52:51.619Z,3.97
2023-05-22T04:55:19.373Z,3.88
2023-05-22T04:57:47.519Z,3.70
2023-05-22T05:00:17.153Z,3.85
2023-05-22T05:02:44.315Z,3.70
2023-05-22T05:05:11.306Z,3.80
2023-05-22T05:07:39.657Z,4.60
2023-05-22T05:10:07.550Z,3.90
2023-05-22T05:12:34.634Z,4.15
2023-05-22T05:15:01.707Z,4.47
2023-05-22T05:17:29.186Z,3.85
2023-05-22T05:19:56.141Z,3.92
2023-05-22T05:22:23.114Z,5.38
2023-05-22T05:24:50.471Z,3.83
2023-05-22T05:27:17.881Z,4.43
2023-05-22T05:29:45.348Z,3.97
2023-05-22T05:32:13.897Z,3.80
2023-05-22T05:34:41.560Z,3.40
2023-05-22T05:37:09.106Z,3.80
2023-05-22T05:39:36.121Z,3.58
2023-05-22T05:42:03.085Z,3.78
2023-05-22T05:44:30.034Z,4.30
2023-05-22T05:46:57.404Z,3.90
2023-05-22T05:49:24.752Z,3.65
2023-05-22T05:51:51.733Z,3.53
2023-05-22T05:54:18.660Z,4.50
2023-05-22T05:56:46.472Z,3.47
2023-05-22T05:59:13.941Z,3.45
2023-05-22T06:01:45.964Z,4.00
2023-05-22T06:04:13.769Z,3.92
2023-05-22T06:06:42.574Z,4.03
2023-05-22T06:09:10.424Z,4.00
2023-05-22T06:11:37.507Z,3.95
2023-05-22T06:14:07.347Z,3.72
2023-05-22T06:16:34.635Z,4.47
2023-05-22T06:19:02.185Z,4.03
2023-05-22T06:21:29.206Z,3.85
2023-05-22T06:23:56.583Z,4.13
2023-05-22T06:26:23.604Z,3.78
2023-05-22T06:28:51.917Z,4.35
2023-05-22T06:31:19.011Z,4.15
2023-05-22T06:33:46.352Z,4.35
2023-05-22T06:36:13.570Z,4.45
2023-05-22T06:38:40.895Z,5.15
2023-05-22T06:41:08.067Z,7.35
2023-05-22T06:43:35.034Z,13.93
2023-05-22T06:46:01.961Z,14.57
2023-05-22T06:48:29.074Z,14.35
2023-05-22T06:50:56.053Z,16.75
2023-05-22T06:53:25.449Z,14.68
2023-05-22T06:55:52.390Z,12.20
2023-05-22T06:58:19.264Z,11.50
2023-05-22T07:00:46.159Z,10.63
2023-05-22T07:03:13.497Z,8.57
2023-05-22T07:05:40.577Z,8.25
2023-05-22T07:08:08.593Z,6.78
2023-05-22T07:10:35.511Z,7.13
2023-05-22T07:13:02.484Z,5.63
2023-05-22T07:15:29.636Z,4.93
2023-05-22T07:17:58.318Z,6.35
2023-05-22T07:20:26.364Z,5.38
2023-05-22T07:22:53.265Z,4.85
2023-05-22T07:25:20.170Z,4.43
2023-05-22T07:27:47.439Z,4.35
2023-05-22T07:30:14.480Z,4.88
2023-05-22T07:32:41.621Z,4.30
2023-05-22T07:35:10.737Z,3.90
2023-05-22T07:37:38.355Z,4.07
2023-05-22T07:40:07.472Z,4.18
2023-05-22T07:42:34.964Z,4.43
2023-05-22T07:45:02.612Z,4.30
2023-05-22T07:47:29.563Z,3.97
2023-05-22T07:49:56.625Z,3.85
2023-05-22T07:52:23.951Z,3.70
2023-05-22T07:54:50.892Z,4.28
2023-05-22T07:57:17.817Z,4.43
2023-05-22T07:59:45.542Z,4.00
2023-05-22T08:02:14.329Z,3.60
2023-05-22T08:04:41.802Z,4.13
2023-05-22T08:07:08.792Z,3.95
2023-05-22T08:09:36.251Z,4.32
2023-05-22T08:12:03.541Z,3.90
2023-05-22T08:14:30.730Z,3.75
2023-05-22T08:16:59.231Z,4.05
2023-05-22T08:19:26.398Z,4.00
2023-05-22T08:21:58.169Z,3.97
2023-05-22T08:24:28.627Z,3.83
2023-05-22T08:26:58.360Z,3.95
2023-05-22T08:29:25.357Z,3.58
2023-05-22T08:31:53.949Z,3.45
2023-05-22T08:34:21.404Z,3.80
2023-05-22T08:36:49.885Z,3.60
2023-05-22T08:39:19.271Z,3.63
2023-05-22T08:41:47.659Z,3.20
2023-05-22T08:44:14.785Z,3.72
2023-05-22T08:46:44.090Z,3.17
2023-05-22T08:49:12.721Z,3.60
2023-05-22T08:51:42.366Z,3.60
2023-05-22T08:54:10.018Z,3.10
2023-05-22T08:56:39.689Z,3.33
2023-05-22T08:59:11.325Z,3.97
2023-05-22T09:01:38.510Z,3.53
2023-05-22T09:04:06.003Z,3.33
2023-05-22T09:06:33.304Z,3.42
2023-05-22T09:09:01.525Z,3.47
2023-05-22T09:11:28.919Z,2.65
2023-05-22T09:14:08.561Z,3.60
2023-05-22T09:16:46.763Z,3.60
2023-05-22T09:19:15.059Z,3.33
2023-05-22T09:21:43.333Z,2.97
2023-05-22T09:24:11.559Z,2.30
2023-05-22T09:26:39.607Z,2.95
2023-05-22T09:29:07.606Z,3.17
2023-05-22T09:31:42.323Z,2.92
2023-05-22T09:34:14.083Z,2.72
2023-05-22T09:36:43.207Z,2.78
2023-05-22T09:39:11.014Z,2.60
2023-05-22T09:41:40.474Z,3.20
2023-05-22T09:44:17.978Z,3.10
2023-05-22T09:46:47.079Z,2.92
2023-05-22T09:49:16.376Z,2.97
2023-05-22T09:51:48.060Z,2.85
2023-05-22T09:54:17.526Z,3.30
2023-05-22T09:56:46.242Z,3.03
2023-05-22T09:59:14.462Z,3.30
2023-05-22T10:01:42.828Z,3.20
2023-05-22T10:04:16.242Z,3.20
2023-05-22T10:06:50.452Z,2.67
2023-05-22T10:09:19.654Z,3.25
2023-05-22T10:11:47.682Z,3.60
2023-05-22T10:14:15.932Z,3.05
2023-05-22T10:16:45.156Z,3.30
2023-05-22T10:19:13.605Z,2.53
2023-05-22T10:21:42.135Z,2.33
2023-05-22T10:24:11.144Z,2.45
2023-05-22T10:26:39.325Z,2.60
2023-05-22T10:29:18.129Z,2.47
2023-05-22T10:31:49.881Z,2.53
2023-05-22T10:35:01.355Z,2.40
2023-05-22T10:37:37.628Z,2.20
2023-05-22T10:40:09.554Z,2.50
2023-05-22T10:42:40.315Z,2.70
2023-05-22T10:45:08.191Z,2.58
2023-05-22T10:47:35.286Z,2.47
2023-05-22T10:50:07.362Z,2.42
2023-05-22T10:52:38.469Z,2.30
2023-05-22T10:55:10.041Z,2.33
2023-05-22T10:57:40.359Z,2.53
2023-05-22T11:00:15.946Z,2.13
2023-05-22T11:02:45.375Z,1.90
2023-05-22T11:05:34.491Z,2.00
2023-05-22T11:08:26.752Z,1.98
2023-05-22T11:10:59.311Z,2.25
2023-05-22T11:13:29.264Z,2.20
2023-05-22T11:15:57.822Z,2.10
2023-05-22T11:18:28.367Z,2.20
2023-05-22T11:20:55.940Z,1.95
2023-05-22T11:23:25.710Z,1.98
2023-05-22T11:25:52.754Z,2.20
2023-05-22T11:28:20.160Z,1.98
2023-05-22T11:30:47.788Z,2.30
2023-05-22T11:33:15.218Z,2.03
2023-05-22T11:35:44.593Z,2.03
2023-05-22T11:38:12.591Z,1.90
2023-05-22T11:40:39.633Z,1.77
2023-05-22T11:43:07.281Z,1.90
2023-05-22T11:45:37.907Z,2.10
2023-05-22T11:48:04.887Z,2.42
2023-05-22T11:50:41.684Z,1.98
2023-05-22T11:53:10.031Z,2.40
2023-05-22T11:55:36.933Z,1.90
2023-05-22T11:58:04.359Z,1.90
2023-05-22T12:00:33.129Z,2.00
2023-05-22T12:03:00.351Z,1.90
2023-05-22T12:05:27.593Z,2.47
2023-05-22T12:07:54.735Z,1.92
2023-05-22T12:10:22.063Z,1.95
2023-05-22T12:12:49.658Z,2.33
2023-05-22T12:15:22.728Z,1.83
2023-05-22T12:17:50.167Z,1.90
2023-05-22T12:20:17.103Z,2.20
2023-05-22T12:22:44.390Z,2.05
2023-05-22T12:25:17.632Z,2.15
2023-05-22T12:27:45.904Z,1.95
2023-05-22T12:30:14.056Z,2.17
2023-05-22T12:32:41.785Z,2.55
2023-05-22T12:35:16.793Z,2.10
2023-05-22T12:37:51.482Z,1.65
2023-05-22T12:40:18.867Z,2.00
2023-05-22T12:42:46.329Z,1.70
2023-05-22T12:45:13.978Z,2.10
2023-05-22T12:47:41.090Z,1.92
2023-05-22T12:50:08.753Z,1.90
2023-05-22T12:52:36.233Z,2.05
2023-05-22T12:55:03.511Z,1.77
2023-05-22T12:57:30.500Z,2.10
2023-05-22T12:59:57.806Z,2.17
2023-05-22T13:02:24.926Z,1.95
2023-05-22T13:04:52.024Z,1.40
2023-05-22T13:07:19.415Z,1.73
2023-05-22T13:09:46.283Z,1.60
2023-05-22T13:12:13.448Z,1.73
2023-05-22T13:14:41.061Z,1.63
2023-05-22T13:17:08.125Z,1.42
2023-05-22T13:19:35.398Z,1.77
2023-05-22T13:22:02.364Z,1.67
2023-05-22T13:24:30.000Z,1.63
2023-05-22T13:26:56.960Z,1.85
2023-05-22T13:29:24.224Z,1.40
2023-05-22T13:31:51.426Z,1.70
2023-05-22T13:34:18.885Z,1.40
2023-05-22T13:36:46.570Z,1.75
2023-05-22T13:39:13.577Z,1.40
2023-05-22T13:41:43.110Z,1.50
2023-05-22T13:44:10.668Z,1.27
2023-05-22T13:46:40.628Z,1.13
2023-05-22T13:49:08.245Z,1.42
2023-05-22T13:51:35.216Z,1.75
2023-05-22T13:54:03.051Z,1.42
2023-05-22T13:56:30.045Z,1.40
2023-05-22T13:58:57.574Z,1.38
2023-05-22T14:01:24.551Z,1.40
2023-05-22T14:03:52.167Z,1.63
2023-05-22T14:06:19.270Z,1.50
2023-05-22T14:08:46.251Z,1.40
2023-05-22T14:11:13.164Z,1.27
2023-05-22T14:13:40.054Z,1.27
2023-05-22T14:16:07.064Z,1.50
2023-05-22T14:18:34.013Z,1.40
2023-05-22T14:21:03.929Z,1.50
2023-05-22T14:23:32.132Z,2.08
2023-05-22T14:25:59.065Z,1.48
2023-05-22T14:28:26.818Z,1.38
2023-05-22T14:30:54.222Z,0.90
2023-05-22T14:33:21.140Z,1.50
2023-05-22T14:35:49.416Z,1.40
2023-05-22T14:38:16.367Z,1.25
2023-05-22T14:40:44.218Z,1.20
2023-05-22T14:43:11.534Z,1.38
2023-05-22T14:45:38.619Z,1.50
2023-05-22T14:48:05.826Z,1.40
2023-05-22T14:50:33.118Z,1.60
2023-05-22T14:53:00.774Z,1.60
2023-05-22T14:55:28.169Z,1.90
2023-05-22T14:57:55.924Z,1.90
2023-05-22T15:00:22.909Z,1.92
2023-05-22T15:02:49.979Z,1.60
2023-05-22T15:05:17.093Z,1.65
2023-05-22T15:07:46.088Z,1.33
2023-05-22T15:10:14.271Z,1.40
2023-05-22T15:12:41.246Z,1.60
2023-05-22T15:15:08.757Z,1.52
2023-05-22T15:17:36.159Z,1.38
2023-05-22T15:20:04.860Z,1.40
2023-05-22T15:22:31.951Z,1.40
2023-05-22T15:25:06.293Z,1.55
2023-05-22T15:27:35.303Z,1.40
2023-05-22T15:30:03.208Z,1.35
2023-05-22T15:32:32.617Z,1.60
2023-05-22T15:34:59.637Z,1.48
2023-05-22T15:37:29.718Z,1.08
2023-05-22T15:39:58.474Z,1.52
2023-05-22T15:42:25.342Z,1.58
2023-05-22T15:44:52.197Z,1.38
2023-05-22T15:47:19.497Z,1.30
2023-05-22T15:49:46.383Z,1.20
2023-05-22T15:52:13.344Z,1.58
2023-05-22T15:54:40.311Z,1.40
2023-05-22T15:57:07.684Z,1.30
2023-05-22T15:59:34.567Z,1.50
2023-05-22T16:02:01.914Z,1.45
2023-05-22T16:04:28.914Z,1.58
2023-05-22T16:06:56.241Z,1.33
2023-05-22T16:09:23.121Z,1.60
2023-05-22T16:11:50.452Z,1.40
2023-05-22T16:14:17.361Z,1.52
2023-05-22T16:16:44.230Z,1.80
2023-05-22T16:19:11.626Z,1.40
2023-05-22T16:21:38.946Z,1.10
2023-05-22T16:24:07.080Z,1.75
2023-05-22T16:26:34.134Z,1.30
2023-05-22T16:29:01.163Z,1.50
2023-05-22T16:31:28.742Z,1.25
2023-05-22T16:33:55.880Z,1.38
2023-05-22T16:36:23.753Z,1.50
2023-05-22T16:38:52.435Z,1.55
2023-05-22T16:41:19.359Z,1.50
2023-05-22T16:43:46.336Z,1.30
2023-05-22T16:46:13.277Z,1.73
2023-05-22T16:48:40.191Z,1.70
2023-05-22T16:51:07.119Z,1.40
2023-05-22T16:53:35.028Z,1.85
2023-05-22T16:56:03.354Z,1.60
2023-05-22T16:58:32.584Z,1.60
2023-05-22T17:00:59.749Z,1.80
2023-05-22T17:03:27.177Z,1.40
2023-05-22T17:05:54.327Z,1.52
2023-05-22T17:08:21.252Z,1.58
2023-05-22T17:10:48.523Z,1.48
2023-05-22T17:13:21.142Z,1.55
2023-05-22T17:15:49.066Z,1.58
2023-05-22T17:18:19.835Z,1.33
2023-05-22T17:20:50.584Z,1.63
2023-05-22T17:23:18.421Z,1.75
2023-05-22T17:25:46.860Z,1.80
2023-05-22T17:28:14.875Z,2.13
2023-05-22T17:30:43.310Z,1.70
2023-05-22T17:33:11.080Z,1.90
2023-05-22T17:35:38.180Z,1.65
2023-05-22T17:38:07.185Z,1.85
2023-05-22T17:40:44.065Z,2.00
2023-05-22T17:43:12.181Z,1.83
2023-05-22T17:45:40.519Z,2.17
2023-05-22T17:48:08.143Z,1.70
2023-05-22T17:50:35.326Z,1.75
2023-05-22T17:53:02.317Z,2.03
2023-05-22T17:55:30.929Z,1.90
2023-05-22T17:57:58.621Z,2.03
2023-05-22T18:00:25.951Z,1.85
2023-05-22T18:02:52.927Z,2.00
2023-05-22T18:05:19.929Z,2.10
2023-05-22T18:07:46.834Z,2.30
2023-05-22T18:10:13.738Z,1.83
2023-05-22T18:12:40.685Z,2.53
2023-05-22T18:15:10.696Z,1.90
2023-05-22T18:17:38.178Z,2.25
2023-05-22T18:20:07.698Z,2.25
2023-05-22T18:22:37.218Z,2.35
2023-05-22T18:25:05.189Z,2.50
2023-05-22T18:27:32.779Z,2.53
2023-05-22T18:29:59.774Z,2.67
2023-05-22T18:32:27.109Z,2.47
2023-05-22T18:34:54.187Z,2.50
2023-05-22T18:37:21.098Z,2.70
2023-05-22T18:39:48.518Z,3.25
2023-05-22T18:42:15.440Z,4.15
2023-05-22T18:44:42.417Z,3.70
2023-05-22T18:47:09.795Z,3.85
2023-05-22T18:49:36.880Z,3.97
2023-05-22T18:52:03.879Z,3.67
2023-05-22T18:54:30.853Z,3.33
2023-05-22T18:56:57.793Z,3.45
2023-05-22T18:59:24.707Z,3.92
2023-05-22T19:01:52.131Z,3.78
2023-05-22T19:04:19.530Z,4.22
2023-05-22T19:06:46.460Z,4.38
2023-05-22T19:09:14.056Z,4.18
2023-05-22T19:11:41.013Z,4.15
2023-05-22T19:14:08.311Z,4.30
2023-05-22T19:16:35.593Z,3.55
2023-05-22T19:19:03.453Z,4.00
2023-05-22T19:21:31.083Z,4.28
2023-05-22T19:23:58.422Z,4.25
2023-05-22T19:26:26.200Z,4.22
2023-05-22T19:28:53.618Z,4.28
2023-05-22T19:31:20.551Z,4.30
2023-05-22T19:33:48.032Z,4.25
2023-05-22T19:36:14.896Z,4.13
2023-05-22T19:38:41.865Z,4.40
2023-05-22T19:41:10.365Z,4.78
2023-05-22T19:43:37.367Z,4.30
2023-05-22T19:46:08.567Z,4.90
2023-05-22T19:48:36.260Z,5.70
2023-05-22T19:51:05.082Z,5.43
2023-05-22T19:53:32.667Z,5.28
2023-05-22T19:55:59.756Z,5.45
2023-05-22T19:58:26.751Z,5.18
2023-05-22T20:00:53.790Z,5.95
2023-05-22T20:03:21.127Z,6.50
2023-05-22T20:05:48.136Z,5.90
2023-05-22T20:08:15.079Z,5.57
2023-05-22T20:10:42.293Z,6.18
2023-05-22T20:13:09.338Z,5.75
2023-05-22T20:15:38.453Z,5.70
2023-05-22T20:18:05.641Z,5.05
2023-05-22T20:20:33.310Z,5.85
2023-05-22T20:23:00.708Z,5.15
2023-05-22T20:25:27.599Z,4.93
2023-05-22T20:27:54.506Z,5.07
2023-05-22T20:30:21.468Z,5.30
2023-05-22T20:32:48.358Z,4.97
2023-05-22T20:35:18.725Z,4.57
2023-05-22T20:37:46.705Z,6.50
2023-05-22T20:40:15.007Z,5.50
2023-05-22T20:42:42.819Z,4.93
2023-05-22T20:45:15.988Z,5.05
2023-05-22T20:47:43.969Z,5.05
2023-05-22T20:50:11.590Z,6.15
2023-05-22T20:52:38.645Z,5.93
2023-05-22T20:55:06.877Z,5.35
2023-05-22T20:57:34.651Z,5.40
2023-05-22T21:00:02.124Z,5.45
2023-05-22T21:02:29.419Z,5.40
2023-05-22T21:04:56.292Z,4.93
2023-05-22T21:07:23.610Z,5.47
2023-05-22T21:09:50.666Z,5.70
2023-05-22T21:12:17.658Z,5.47
2023-05-22T21:14:44.623Z,4.78
2023-05-22T21:17:11.530Z,5.00
2023-05-22T21:19:38.852Z,5.22
2023-05-22T21:22:05.947Z,6.15
2023-05-22T21:24:33.040Z,6.38
2023-05-22T21:26:59.942Z,6.15
2023-05-22T21:29:27.270Z,6.20
2023-05-22T21:31:54.304Z,5.28
2023-05-22T21:34:21.396Z,5.70
2023-05-22T21:36:50.495Z,4.38
2023-05-22T21:39:17.553Z,5.35
2023-05-22T21:41:44.826Z,4.45
2023-05-22T21:44:11.804Z,4.93
2023-05-22T21:46:39.234Z,4.53
2023-05-22T21:49:06.326Z,4.95
2023-05-22T21:51:33.687Z,5.03
2023-05-22T21:54:01.408Z,4.93
2023-05-22T21:56:28.327Z,4.82
2023-05-22T21:58:55.292Z,4.60
2023-05-22T22:01:23.182Z,4.82
2023-05-22T22:03:50.748Z,4.50
2023-05-22T22:06:17.643Z,4.57
2023-05-22T22:08:44.552Z,4.88
2023-05-22T22:11:11.405Z,4.22
2023-05-22T22:13:38.346Z,4.95
2023-05-22T22:16:05.736Z,4.63
2023-05-22T22:18:33.660Z,4.05
2023-05-22T22:21:02.426Z,4.63
2023-05-22T22:23:29.918Z,5.00
2023-05-22T22:25:56.970Z,4.97
2023-05-22T22:28:23.944Z,4.97
2023-05-22T22:30:50.969Z,5.47
2023-05-22T22:33:18.025Z,5.50
2023-05-22T22:35:45.002Z,5.25
2023-05-22T22:38:11.951Z,4.70
2023-05-22T22:40:39.143Z,5.00
2023-05-22T22:43:06.203Z,5.20
2023-05-22T22:45:33.411Z,5.28
2023-05-22T22:48:03.526Z,5.53
2023-05-22T22:50:30.496Z,5.80
2023-05-22T22:52:57.791Z,5.38
2023-05-22T22:55:25.144Z,5.35
2023-05-22T22:57:52.393Z,5.30
2023-05-22T23:00:20.135Z,6.13
2023-05-22T23:02:47.201Z,5.60
2023-05-22T23:05:16.732Z,5.30
2023-05-22T23:07:44.355Z,5.32
2023-05-22T23:10:11.492Z,5.13
2023-05-22T23:12:38.816Z,4.90
2023-05-22T23:15:06.490Z,4.93
2023-05-22T23:17:33.492Z,5.53
2023-05-22T23:20:01.053Z,5.35
2023-05-22T23:22:28.473Z,5.25
2023-05-22T23:24:55.427Z,5.95
2023-05-22T23:27:22.358Z,5.90
2023-05-22T23:29:49.242Z,5.43
2023-05-22T23:32:16.181Z,5.45
2023-05-22T23:34:43.477Z,5.10
2023-05-22T23:37:10.547Z,5.32
2023-05-22T23:39:37.960Z,5.38
2023-05-22T23:42:05.461Z,4.65
2023-05-22T23:44:32.492Z,5.20
2023-05-22T23:46:59.591Z,4.68
2023-05-22T23:49:26.822Z,4.65
2023-05-22T23:51:54.040Z,4.45
2023-05-22T23:54:21.434Z,4.47
2023-05-22T23:56:48.589Z,3.13
2023-05-22T23:59:15.888Z,3.60
